createdAt,value
2019-01-22T00:00:38.259Z,0.00
2019-01-22T00:01:38.164Z,0.00
2019-01-22T00:02:38.073Z,0.00
2019-01-22T00:03:37.982Z,0.00
2019-01-22T00:04:37.896Z,0.00
2019-01-22T00:05:37.799Z,0.00
2019-01-22T00:06:37.707Z,0.00
2019-01-22T00:07:37.615Z,0.00
2019-01-22T00:08:37.525Z,0.00
2019-01-22T00:09:37.437Z,0.00
2019-01-22T00:10:37.342Z,0.00
2019-01-22T00:11:37.245Z,0.00
2019-01-22T00:12:37.154Z,0.00
2019-01-22T00:13:37.060Z,0.00
2019-01-22T00:14:36.965Z,0.00
2019-01-22T00:15:36.886Z,0.00
2019-01-22T00:16:36.784Z,0.00
2019-01-22T00:17:36.694Z,0.00
2019-01-22T00:18:36.599Z,0.00
2019-01-22T00:19:36.504Z,0.00
2019-01-22T00:20:36.412Z,0.00
2019-01-22T00:21:36.330Z,0.00
2019-01-22T00:22:36.228Z,0.00
2019-01-22T00:23:36.132Z,0.00
2019-01-22T00:24:36.041Z,0.00
2019-01-22T00:25:35.950Z,0.00
2019-01-22T00:26:35.859Z,0.00
2019-01-22T00:27:42.327Z,0.00
2019-01-22T00:28:35.675Z,0.00
2019-01-22T00:29:35.579Z,0.00
2019-01-22T00:30:35.489Z,0.00
2019-01-22T00:31:35.394Z,0.00
2019-01-22T00:32:35.305Z,0.00
2019-01-22T00:33:35.210Z,0.00
2019-01-22T00:34:35.123Z,0.00
2019-01-22T00:35:35.023Z,0.00
2019-01-22T00:36:34.945Z,0.00
2019-01-22T00:37:34.837Z,0.00
2019-01-22T00:38:34.746Z,0.00
2019-01-22T00:39:34.674Z,0.00
2019-01-22T00:40:34.560Z,0.00
2019-01-22T00:41:34.469Z,0.00
2019-01-22T00:42:34.378Z,0.00
2019-01-22T00:43:34.287Z,0.00
2019-01-22T00:44:34.195Z,0.00
2019-01-22T00:45:34.098Z,0.00
2019-01-22T00:46:34.011Z,0.00
2019-01-22T00:47:33.918Z,0.00
2019-01-22T00:48:33.827Z,0.00
2019-01-22T00:49:33.730Z,0.00
2019-01-22T00:50:33.636Z,0.00
2019-01-22T00:51:33.548Z,0.00
2019-01-22T00:52:33.449Z,0.00
2019-01-22T00:53:33.362Z,0.00
2019-01-22T00:54:33.272Z,0.00
2019-01-22T00:55:33.180Z,0.00
2019-01-22T00:56:33.081Z,0.00
2019-01-22T00:57:32.986Z,0.00
2019-01-22T00:58:32.892Z,0.00
2019-01-22T00:59:32.814Z,0.00
2019-01-22T01:00:32.709Z,0.00
2019-01-22T01:01:32.616Z,0.00
2019-01-22T01:02:32.536Z,0.00
2019-01-22T01:03:32.435Z,0.00
2019-01-22T01:04:32.338Z,0.00
2019-01-22T01:05:32.244Z,0.00
2019-01-22T01:06:32.150Z,0.00
2019-01-22T01:07:32.060Z,0.00
2019-01-22T01:08:31.971Z,0.00
2019-01-22T01:09:39.521Z,0.00
2019-01-22T01:11:36.179Z,0.00
2019-01-22T01:12:36.038Z,0.00
2019-01-22T01:14:40.353Z,0.00
2019-01-22T01:15:40.215Z,0.00
2019-01-22T01:17:44.100Z,0.00
2019-01-22T01:18:44.008Z,0.00
2019-01-22T01:20:37.259Z,0.00
2019-01-22T01:21:37.112Z,0.00
2019-01-22T01:23:40.922Z,0.00
2019-01-22T01:24:40.820Z,0.00
2019-01-22T01:26:44.656Z,0.00
2019-01-22T01:27:44.508Z,0.00
2019-01-22T01:28:44.417Z,0.00
2019-01-22T01:29:44.324Z,0.00
2019-01-22T01:30:44.235Z,0.00
2019-01-22T01:31:44.136Z,0.00
2019-01-22T01:32:44.051Z,0.00
2019-01-22T01:33:43.956Z,0.00
2019-01-22T01:34:43.864Z,0.00
2019-01-22T01:35:43.775Z,0.00
2019-01-22T01:36:43.678Z,0.00
2019-01-22T01:37:43.579Z,0.00
2019-01-22T01:38:43.485Z,0.00
2019-01-22T01:39:43.406Z,0.00
2019-01-22T01:40:43.302Z,0.00
2019-01-22T01:41:43.216Z,0.00
2019-01-22T01:42:43.121Z,0.00
2019-01-22T01:43:43.039Z,0.00
2019-01-22T01:44:42.935Z,0.00
2019-01-22T01:45:42.841Z,0.00
2019-01-22T01:46:42.744Z,0.00
2019-01-22T01:47:42.654Z,0.00
2019-01-22T01:48:42.573Z,0.00
2019-01-22T01:49:42.468Z,0.00
2019-01-22T01:50:42.385Z,0.00
2019-01-22T01:51:42.282Z,0.00
2019-01-22T01:52:42.186Z,0.00
2019-01-22T01:53:42.099Z,0.00
2019-01-22T01:54:42.003Z,0.00
2019-01-22T01:55:41.914Z,0.00
2019-01-22T01:56:41.815Z,0.00
2019-01-22T01:57:41.720Z,0.00
2019-01-22T01:58:41.645Z,0.00
2019-01-22T01:59:41.552Z,0.00
2019-01-22T02:00:41.452Z,0.00
2019-01-22T02:01:41.351Z,0.00
2019-01-22T02:02:41.272Z,0.00
2019-01-22T02:03:41.168Z,0.00
2019-01-22T02:04:41.075Z,0.00
2019-01-22T02:05:40.984Z,0.00
2019-01-22T02:06:40.887Z,0.00
2019-01-22T02:07:40.793Z,0.00
2019-01-22T02:08:40.720Z,0.00
2019-01-22T02:09:40.606Z,0.00
2019-01-22T02:10:40.585Z,0.00
2019-01-22T02:11:40.420Z,0.00
2019-01-22T02:12:40.336Z,0.00
2019-01-22T02:13:40.241Z,0.00
2019-01-22T02:14:40.139Z,0.00
2019-01-22T02:15:40.046Z,0.00
2019-01-22T02:16:39.961Z,0.00
2019-01-22T02:17:39.858Z,0.00
2019-01-22T02:18:39.770Z,0.00
2019-01-22T02:19:39.674Z,0.00
2019-01-22T02:20:39.585Z,0.00
2019-01-22T02:21:39.491Z,0.00
2019-01-22T02:22:39.391Z,0.00
2019-01-22T02:23:39.298Z,0.00
2019-01-22T02:24:39.210Z,0.00
2019-01-22T02:25:39.117Z,0.00
2019-01-22T02:26:39.019Z,0.00
2019-01-22T02:27:38.925Z,0.00
2019-01-22T02:28:38.845Z,0.00
2019-01-22T02:29:38.743Z,0.00
2019-01-22T02:30:38.646Z,0.00
2019-01-22T02:31:38.558Z,0.00
2019-01-22T02:32:38.461Z,0.00
2019-01-22T02:33:38.363Z,0.00
2019-01-22T02:34:38.277Z,0.00
2019-01-22T02:35:38.178Z,0.00
2019-01-22T02:36:38.097Z,0.00
2019-01-22T02:37:37.998Z,0.00
2019-01-22T02:38:37.901Z,0.00
2019-01-22T02:39:37.805Z,0.00
2019-01-22T02:40:37.711Z,0.00
2019-01-22T02:41:37.623Z,0.00
2019-01-22T02:42:37.524Z,0.00
2019-01-22T02:43:37.441Z,0.00
2019-01-22T02:44:37.345Z,0.00
2019-01-22T02:45:37.250Z,0.00
2019-01-22T02:46:37.170Z,0.00
2019-01-22T02:47:37.062Z,0.00
2019-01-22T02:48:36.969Z,0.00
2019-01-22T02:49:36.871Z,0.00
2019-01-22T02:50:36.781Z,0.00
2019-01-22T02:51:36.703Z,0.00
2019-01-22T02:52:36.594Z,0.00
2019-01-22T02:53:38.833Z,0.00
2019-01-22T02:54:36.404Z,0.00
2019-01-22T02:55:36.317Z,0.00
2019-01-22T02:56:36.235Z,0.00
2019-01-22T02:57:36.127Z,0.00
2019-01-22T02:58:36.031Z,0.00
2019-01-22T02:59:35.945Z,0.00
2019-01-22T03:00:35.845Z,0.00
2019-01-22T03:01:35.755Z,0.00
2019-01-22T03:02:35.663Z,0.00
2019-01-22T03:03:35.569Z,0.00
2019-01-22T03:04:35.472Z,0.00
2019-01-22T03:05:35.381Z,0.00
2019-01-22T03:06:35.291Z,0.00
2019-01-22T03:07:35.194Z,0.00
2019-01-22T03:08:35.108Z,0.00
2019-01-22T03:09:35.015Z,0.00
2019-01-22T03:10:34.914Z,0.00
2019-01-22T03:11:34.832Z,0.00
2019-01-22T03:12:34.728Z,0.00
2019-01-22T03:13:34.640Z,0.00
2019-01-22T03:14:34.558Z,0.00
2019-01-22T03:15:34.462Z,0.00
2019-01-22T03:16:34.360Z,0.00
2019-01-22T03:17:34.270Z,0.00
2019-01-22T03:18:34.171Z,0.00
2019-01-22T03:19:34.084Z,0.00
2019-01-22T03:20:33.991Z,0.00
2019-01-22T03:21:33.905Z,0.00
2019-01-22T03:22:33.805Z,0.00
2019-01-22T03:23:33.712Z,0.00
2019-01-22T03:24:33.621Z,0.00
2019-01-22T03:25:33.530Z,0.00
2019-01-22T03:26:33.435Z,0.00
2019-01-22T03:27:33.344Z,0.00
2019-01-22T03:28:33.247Z,0.00
2019-01-22T03:29:33.158Z,0.00
2019-01-22T03:30:33.070Z,0.00
2019-01-22T03:31:32.992Z,0.00
2019-01-22T03:32:32.884Z,0.00
2019-01-22T03:33:32.789Z,0.00
2019-01-22T03:34:32.713Z,0.00
2019-01-22T03:35:32.608Z,0.00
2019-01-22T03:36:32.514Z,0.00
2019-01-22T03:37:32.421Z,0.00
2019-01-22T03:38:32.324Z,0.00
2019-01-22T03:39:32.235Z,0.00
2019-01-22T03:40:32.144Z,0.00
2019-01-22T03:41:32.051Z,0.00
2019-01-22T03:42:31.959Z,0.00
2019-01-22T03:43:31.866Z,0.00
2019-01-22T03:44:31.786Z,0.00
2019-01-22T03:45:31.684Z,0.00
2019-01-22T03:46:31.591Z,0.00
2019-01-22T03:47:31.496Z,0.00
2019-01-22T03:48:31.403Z,0.00
2019-01-22T03:49:31.317Z,0.00
2019-01-22T03:50:31.215Z,0.00
2019-01-22T03:51:31.126Z,0.00
2019-01-22T03:52:31.037Z,0.00
2019-01-22T03:53:30.945Z,0.00
2019-01-22T03:54:30.849Z,0.00
2019-01-22T03:55:30.757Z,0.00
2019-01-22T03:56:30.663Z,0.00
2019-01-22T03:57:30.572Z,0.00
2019-01-22T03:58:30.484Z,0.00
2019-01-22T03:59:30.398Z,0.00
2019-01-22T04:00:30.294Z,0.00
2019-01-22T04:01:30.209Z,0.00
2019-01-22T04:02:30.110Z,0.00
2019-01-22T04:03:30.020Z,0.00
2019-01-22T04:04:29.923Z,0.00
2019-01-22T04:05:29.838Z,0.00
2019-01-22T04:06:29.738Z,0.00
2019-01-22T04:07:29.647Z,0.00
2019-01-22T04:08:29.559Z,0.00
2019-01-22T04:09:29.467Z,0.00
2019-01-22T04:10:29.368Z,0.00
2019-01-22T04:11:29.281Z,0.00
2019-01-22T04:12:29.199Z,0.00
2019-01-22T04:13:29.098Z,0.00
2019-01-22T04:14:29.006Z,0.00
2019-01-22T04:15:28.911Z,0.00
2019-01-22T04:16:28.817Z,0.00
2019-01-22T04:17:28.724Z,0.00
2019-01-22T04:18:28.630Z,0.00
2019-01-22T04:19:28.544Z,0.00
2019-01-22T04:20:28.452Z,0.00
2019-01-22T04:21:28.359Z,0.00
2019-01-22T04:22:28.275Z,0.00
2019-01-22T04:23:28.173Z,0.00
2019-01-22T04:24:28.079Z,0.00
2019-01-22T04:25:27.990Z,0.00
2019-01-22T04:26:27.897Z,0.00
2019-01-22T04:27:27.812Z,0.00
2019-01-22T04:28:27.714Z,0.00
2019-01-22T04:29:27.624Z,0.00
2019-01-22T04:30:27.541Z,0.00
2019-01-22T04:31:27.439Z,0.00
2019-01-22T04:32:27.342Z,0.00
2019-01-22T04:33:27.252Z,0.00
2019-01-22T04:34:27.162Z,0.00
2019-01-22T04:35:27.068Z,0.00
2019-01-22T04:36:26.971Z,0.00
2019-01-22T04:37:26.914Z,0.00
2019-01-22T04:38:26.791Z,0.00
2019-01-22T04:39:26.703Z,0.00
2019-01-22T04:40:26.605Z,0.00
2019-01-22T04:41:26.514Z,0.00
2019-01-22T04:42:26.422Z,0.00
2019-01-22T04:43:26.335Z,0.00
2019-01-22T04:44:26.237Z,0.00
2019-01-22T04:45:26.154Z,0.00
2019-01-22T04:46:26.056Z,0.00
2019-01-22T04:47:25.965Z,0.00
2019-01-22T04:48:25.868Z,0.00
2019-01-22T04:49:25.825Z,0.00
2019-01-22T04:50:25.683Z,0.00
2019-01-22T04:51:25.597Z,0.00
2019-01-22T04:52:25.510Z,0.00
2019-01-22T04:53:25.412Z,0.00
2019-01-22T04:54:25.325Z,0.00
2019-01-22T04:55:25.223Z,0.00
2019-01-22T04:56:25.137Z,0.00
2019-01-22T04:57:25.054Z,0.00
2019-01-22T04:58:24.949Z,0.00
2019-01-22T04:59:24.864Z,0.00
2019-01-22T05:00:24.771Z,0.00
2019-01-22T05:01:24.676Z,0.00
2019-01-22T05:02:24.584Z,0.00
2019-01-22T05:03:24.494Z,0.00
2019-01-22T05:04:24.408Z,0.00
2019-01-22T05:05:24.313Z,0.00
2019-01-22T05:06:24.265Z,0.00
2019-01-22T05:07:24.123Z,0.00
2019-01-22T05:08:24.037Z,0.00
2019-01-22T05:09:23.946Z,0.00
2019-01-22T05:10:23.869Z,0.00
2019-01-22T05:11:23.761Z,0.00
2019-01-22T05:12:23.673Z,0.00
2019-01-22T05:13:23.581Z,0.00
2019-01-22T05:14:23.481Z,0.00
2019-01-22T05:15:23.400Z,0.00
2019-01-22T05:16:23.305Z,0.00
2019-01-22T05:17:23.233Z,0.00
2019-01-22T05:18:23.119Z,0.00
2019-01-22T05:19:23.034Z,0.00
2019-01-22T05:20:22.938Z,0.00
2019-01-22T05:21:22.847Z,0.00
2019-01-22T05:22:22.756Z,0.00
2019-01-22T05:23:22.663Z,0.00
2019-01-22T05:24:22.575Z,0.00
2019-01-22T05:25:22.473Z,0.00
2019-01-22T05:26:22.386Z,0.00
2019-01-22T05:27:22.290Z,0.00
2019-01-22T05:28:22.204Z,0.00
2019-01-22T05:29:22.113Z,0.00
2019-01-22T05:30:22.027Z,0.00
2019-01-22T05:31:21.930Z,0.00
2019-01-22T05:32:21.834Z,0.00
2019-01-22T05:33:21.742Z,0.00
2019-01-22T05:34:21.661Z,0.00
2019-01-22T05:35:21.558Z,0.00
2019-01-22T05:36:21.475Z,0.00
2019-01-22T05:37:21.379Z,0.00
2019-01-22T05:38:21.285Z,0.00
2019-01-22T05:39:21.194Z,0.00
2019-01-22T05:40:21.100Z,0.00
2019-01-22T05:41:21.014Z,0.00
2019-01-22T05:42:20.920Z,0.00
2019-01-22T05:43:20.842Z,0.00
2019-01-22T05:44:20.741Z,0.00
2019-01-22T05:45:20.649Z,0.00
2019-01-22T05:46:20.555Z,0.00
2019-01-22T05:47:20.461Z,0.00
2019-01-22T05:48:20.392Z,0.00
2019-01-22T05:49:20.285Z,0.00
2019-01-22T05:50:20.243Z,0.00
2019-01-22T05:51:20.099Z,0.00
2019-01-22T05:52:20.009Z,0.00
2019-01-22T05:53:19.919Z,0.00
2019-01-22T05:54:25.165Z,0.00
2019-01-22T05:55:19.730Z,0.00
2019-01-22T05:56:19.638Z,0.00
2019-01-22T05:57:19.552Z,0.00
2019-01-22T05:58:19.465Z,0.00
2019-01-22T05:59:19.368Z,0.00
2019-01-22T06:00:19.276Z,0.00
2019-01-22T06:01:19.184Z,0.00
2019-01-22T06:02:19.090Z,0.00
2019-01-22T06:03:18.996Z,0.00
2019-01-22T06:04:18.917Z,0.00
2019-01-22T06:05:18.818Z,0.00
2019-01-22T06:06:18.722Z,0.00
2019-01-22T06:07:18.631Z,0.00
2019-01-22T06:08:18.545Z,0.00
2019-01-22T06:09:18.453Z,0.00
2019-01-22T06:10:18.363Z,0.00
2019-01-22T06:11:18.277Z,0.00
2019-01-22T06:12:18.176Z,0.00
2019-01-22T06:13:18.082Z,0.00
2019-01-22T06:14:17.998Z,0.00
2019-01-22T06:15:17.904Z,0.00
2019-01-22T06:16:17.813Z,0.00
2019-01-22T06:17:17.721Z,0.00
2019-01-22T06:18:17.632Z,0.00
2019-01-22T06:19:17.547Z,0.00
2019-01-22T06:20:17.447Z,0.00
2019-01-22T06:21:17.382Z,0.00
2019-01-22T06:22:17.404Z,0.00
2019-01-22T06:23:17.178Z,0.00
2019-01-22T06:24:17.085Z,0.00
2019-01-22T06:25:17.042Z,0.00
2019-01-22T06:26:16.916Z,0.00
2019-01-22T06:27:16.809Z,0.00
2019-01-22T06:28:16.721Z,0.00
2019-01-22T06:29:16.623Z,0.00
2019-01-22T06:30:16.532Z,0.00
2019-01-22T06:31:16.441Z,0.00
2019-01-22T06:32:16.354Z,0.00
2019-01-22T06:33:16.258Z,4.00
2019-01-22T06:34:16.178Z,4.00
2019-01-22T06:35:16.081Z,4.00
2019-01-22T06:36:15.998Z,0.00
2019-01-22T06:37:15.911Z,4.00
2019-01-22T06:38:15.806Z,4.00
2019-01-22T06:39:15.710Z,4.00
2019-01-22T06:40:15.629Z,4.00
2019-01-22T06:41:15.545Z,8.00
2019-01-22T06:42:15.449Z,4.00
2019-01-22T06:43:15.350Z,8.00
2019-01-22T06:44:15.256Z,8.00
2019-01-22T06:45:15.201Z,8.00
2019-01-22T06:46:15.078Z,12.00
2019-01-22T06:47:14.986Z,12.00
2019-01-22T06:48:14.891Z,16.00
2019-01-22T06:49:14.804Z,16.00
2019-01-22T06:50:14.709Z,16.00
2019-01-22T06:51:14.618Z,20.00
2019-01-22T06:52:14.525Z,20.00
2019-01-22T06:53:14.439Z,24.00
2019-01-22T06:54:14.354Z,28.00
2019-01-22T06:55:14.253Z,28.00
2019-01-22T06:56:14.167Z,32.00
2019-01-22T06:57:14.074Z,32.00
2019-01-22T06:58:13.984Z,36.00
2019-01-22T06:59:13.906Z,44.00
2019-01-22T07:00:13.799Z,48.00
2019-01-22T07:01:13.706Z,48.00
2019-01-22T07:02:13.621Z,48.00
2019-01-22T07:03:13.527Z,56.00
2019-01-22T07:04:13.435Z,56.00
2019-01-22T07:05:13.342Z,60.00
2019-01-22T07:06:13.257Z,60.00
2019-01-22T07:07:13.158Z,68.00
2019-01-22T07:08:13.074Z,72.00
2019-01-22T07:09:12.980Z,76.00
2019-01-22T07:10:13.156Z,76.00
2019-01-22T07:11:12.804Z,84.00
2019-01-22T07:12:12.728Z,88.00
2019-01-22T07:13:12.616Z,92.00
2019-01-22T07:14:12.527Z,96.00
2019-01-22T07:15:12.433Z,100.00
2019-01-22T07:16:12.435Z,108.00
2019-01-22T07:17:12.266Z,112.00
2019-01-22T07:18:12.162Z,116.00
2019-01-22T07:19:12.077Z,124.00
2019-01-22T07:20:11.977Z,132.00
2019-01-22T07:21:11.889Z,132.00
2019-01-22T07:22:11.810Z,136.00
2019-01-22T07:23:11.708Z,140.00
2019-01-22T07:24:11.615Z,148.00
2019-01-22T07:25:11.524Z,152.00
2019-01-22T07:26:11.436Z,160.00
2019-01-22T07:27:11.344Z,168.00
2019-01-22T07:28:11.258Z,176.00
2019-01-22T07:29:11.166Z,188.00
2019-01-22T07:30:11.066Z,196.00
2019-01-22T07:31:10.977Z,204.00
2019-01-22T07:32:10.887Z,212.00
2019-01-22T07:33:10.793Z,216.00
2019-01-22T07:34:10.701Z,220.00
2019-01-22T07:35:10.614Z,228.00
2019-01-22T07:36:10.519Z,232.00
2019-01-22T07:37:10.438Z,236.00
2019-01-22T07:38:10.344Z,240.00
2019-01-22T07:39:10.258Z,248.00
2019-01-22T07:40:10.155Z,252.00
2019-01-22T07:41:10.072Z,264.00
2019-01-22T07:42:09.981Z,272.00
2019-01-22T07:43:09.893Z,272.00
2019-01-22T07:44:09.793Z,276.00
2019-01-22T07:45:09.719Z,280.00
2019-01-22T07:46:09.620Z,284.00
2019-01-22T07:47:09.526Z,296.00
2019-01-22T07:48:09.446Z,304.00
2019-01-22T07:49:09.350Z,316.00
2019-01-22T07:50:09.251Z,324.00
2019-01-22T07:51:09.155Z,324.00
2019-01-22T07:52:09.066Z,324.00
2019-01-22T07:53:08.980Z,316.00
2019-01-22T07:54:08.884Z,328.00
2019-01-22T07:55:08.803Z,340.00
2019-01-22T07:56:08.702Z,352.00
2019-01-22T07:57:08.611Z,364.00
2019-01-22T07:58:08.521Z,376.00
2019-01-22T07:59:08.430Z,384.00
2019-01-22T08:00:08.344Z,392.00
2019-01-22T08:01:08.251Z,400.00
2019-01-22T08:02:08.156Z,412.00
2019-01-22T08:03:08.080Z,412.00
2019-01-22T08:04:07.977Z,408.00
2019-01-22T08:05:07.917Z,420.00
2019-01-22T08:06:07.801Z,444.00
2019-01-22T08:07:07.705Z,460.00
2019-01-22T08:08:07.617Z,468.00
2019-01-22T08:09:07.522Z,476.00
2019-01-22T08:10:07.459Z,488.00
2019-01-22T08:11:07.360Z,484.00
2019-01-22T08:12:07.257Z,480.00
2019-01-22T08:13:07.172Z,472.00
2019-01-22T08:14:07.081Z,476.00
2019-01-22T08:15:06.982Z,480.00
2019-01-22T08:16:06.896Z,476.00
2019-01-22T08:17:06.798Z,484.00
2019-01-22T08:18:06.723Z,488.00
2019-01-22T08:19:06.621Z,484.00
2019-01-22T08:20:06.540Z,484.00
2019-01-22T08:21:06.435Z,504.00
2019-01-22T08:22:06.344Z,516.00
2019-01-22T08:23:06.269Z,500.00
2019-01-22T08:24:06.163Z,492.00
2019-01-22T08:25:06.072Z,496.00
2019-01-22T08:26:05.994Z,472.00
2019-01-22T08:27:05.897Z,444.00
2019-01-22T08:28:05.812Z,420.00
2019-01-22T08:29:05.716Z,408.00
2019-01-22T08:30:05.622Z,404.00
2019-01-22T08:31:05.533Z,420.00
2019-01-22T08:32:05.464Z,464.00
2019-01-22T08:33:05.354Z,476.00
2019-01-22T08:34:05.265Z,472.00
2019-01-22T08:35:05.172Z,448.00
2019-01-22T08:36:05.083Z,440.00
2019-01-22T08:37:04.989Z,436.00
2019-01-22T08:38:04.903Z,432.00
2019-01-22T08:39:04.804Z,436.00
2019-01-22T08:40:04.715Z,448.00
2019-01-22T08:41:04.628Z,504.00
2019-01-22T08:42:04.535Z,520.00
2019-01-22T08:43:04.443Z,508.00
2019-01-22T08:44:04.353Z,472.00
2019-01-22T08:45:04.275Z,448.00
2019-01-22T08:46:04.175Z,436.00
2019-01-22T08:47:04.084Z,428.00
2019-01-22T08:48:03.997Z,452.00
2019-01-22T08:49:03.897Z,496.00
2019-01-22T08:50:03.815Z,524.00
2019-01-22T08:51:03.721Z,536.00
2019-01-22T08:52:03.640Z,536.00
2019-01-22T08:53:03.574Z,536.00
2019-01-22T08:54:03.453Z,548.00
2019-01-22T08:55:08.104Z,568.00
2019-01-22T08:56:03.266Z,572.00
2019-01-22T08:57:03.174Z,564.00
2019-01-22T08:58:03.105Z,540.00
2019-01-22T08:59:03.015Z,524.00
2019-01-22T09:00:02.905Z,508.00
2019-01-22T09:01:02.830Z,504.00
2019-01-22T09:02:02.734Z,516.00
2019-01-22T09:03:02.634Z,516.00
2019-01-22T09:04:02.585Z,508.00
2019-01-22T09:05:02.465Z,496.00
2019-01-22T09:06:02.365Z,508.00
2019-01-22T09:07:02.274Z,568.00
2019-01-22T09:08:02.181Z,604.00
2019-01-22T09:09:02.239Z,636.00
2019-01-22T09:10:02.008Z,636.00
2019-01-22T09:11:01.908Z,632.00
2019-01-22T09:12:01.818Z,624.00
2019-01-22T09:13:01.749Z,624.00
2019-01-22T09:14:01.639Z,612.00
2019-01-22T09:15:01.604Z,600.00
2019-01-22T09:16:01.460Z,608.00
2019-01-22T09:17:02.361Z,624.00
2019-01-22T09:18:01.274Z,620.00
2019-01-22T09:19:01.181Z,604.00
2019-01-22T09:20:01.099Z,588.00
2019-01-22T09:21:01.031Z,584.00
2019-01-22T09:22:00.905Z,576.00
2019-01-22T09:23:00.813Z,568.00
2019-01-22T09:24:01.796Z,556.00
2019-01-22T09:25:00.634Z,556.00
2019-01-22T09:26:00.541Z,580.00
2019-01-22T09:27:00.456Z,592.00
2019-01-22T09:28:00.359Z,600.00
2019-01-22T09:29:00.272Z,612.00
2019-01-22T09:30:00.180Z,624.00
2019-01-22T09:31:00.093Z,640.00
2019-01-22T09:32:00.005Z,712.00
2019-01-22T09:32:59.905Z,796.00
2019-01-22T09:33:59.836Z,804.00
2019-01-22T09:34:59.733Z,764.00
2019-01-22T09:35:59.638Z,764.00
2019-01-22T09:36:59.546Z,784.00
2019-01-22T09:37:59.450Z,808.00
2019-01-22T09:38:59.360Z,804.00
2019-01-22T09:39:59.280Z,820.00
2019-01-22T09:40:59.206Z,844.00
2019-01-22T09:41:59.099Z,856.00
2019-01-22T09:42:59.003Z,836.00
2019-01-22T09:43:58.910Z,816.00
2019-01-22T09:44:58.816Z,792.00
2019-01-22T09:45:58.727Z,764.00
2019-01-22T09:46:58.646Z,756.00
2019-01-22T09:47:58.545Z,748.00
2019-01-22T09:48:58.457Z,780.00
2019-01-22T09:49:58.366Z,840.00
2019-01-22T09:50:58.275Z,856.00
2019-01-22T09:51:58.180Z,816.00
2019-01-22T09:52:58.089Z,808.00
2019-01-22T09:53:58.004Z,824.00
2019-01-22T09:54:57.925Z,848.00
2019-01-22T09:56:00.884Z,856.00
2019-01-22T09:56:57.756Z,808.00
2019-01-22T09:57:57.645Z,784.00
2019-01-22T09:58:57.547Z,772.00
2019-01-22T09:59:57.466Z,788.00
2019-01-22T10:00:57.366Z,792.00
2019-01-22T10:01:57.272Z,820.00
2019-01-22T10:02:57.186Z,840.00
2019-01-22T10:04:03.189Z,840.00
2019-01-22T10:04:57.000Z,856.00
2019-01-22T10:05:56.910Z,848.00
2019-01-22T10:06:56.865Z,820.00
2019-01-22T10:07:56.727Z,828.00
2019-01-22T10:08:56.648Z,848.00
2019-01-22T10:09:56.565Z,872.00
2019-01-22T10:10:56.457Z,868.00
2019-01-22T10:11:56.361Z,888.00
2019-01-22T10:12:56.278Z,912.00
2019-01-22T10:13:56.188Z,928.00
2019-01-22T10:14:56.091Z,932.00
2019-01-22T10:15:55.999Z,952.00
2019-01-22T10:16:55.908Z,948.00
2019-01-22T10:17:55.818Z,944.00
2019-01-22T10:18:55.724Z,932.00
2019-01-22T10:19:55.635Z,944.00
2019-01-22T10:20:55.544Z,936.00
2019-01-22T10:21:55.452Z,948.00
2019-01-22T10:22:55.369Z,996.00
2019-01-22T10:23:55.272Z,1016.00
2019-01-22T10:24:55.187Z,1028.00
2019-01-22T10:25:55.098Z,1068.00
2019-01-22T10:26:54.997Z,1096.00
2019-01-22T10:27:54.912Z,1080.00
2019-01-22T10:28:54.820Z,1080.00
2019-01-22T10:29:54.728Z,1140.00
2019-01-22T10:30:54.637Z,1156.00
2019-01-22T10:31:54.553Z,1124.00
2019-01-22T10:32:54.461Z,1096.00
2019-01-22T10:33:54.360Z,1080.00
2019-01-22T10:34:54.313Z,1084.00
2019-01-22T10:35:54.177Z,1080.00
2019-01-22T10:36:54.105Z,1076.00
2019-01-22T10:37:54.010Z,1064.00
2019-01-22T10:38:53.905Z,1060.00
2019-01-22T10:39:53.817Z,1044.00
2019-01-22T10:40:53.730Z,1028.00
2019-01-22T10:41:53.632Z,1000.00
2019-01-22T10:42:53.561Z,1000.00
2019-01-22T10:43:53.459Z,996.00
2019-01-22T10:44:53.364Z,988.00
2019-01-22T10:45:53.273Z,980.00
2019-01-22T10:46:53.179Z,992.00
2019-01-22T10:47:53.118Z,984.00
2019-01-22T10:48:52.995Z,972.00
2019-01-22T10:49:52.910Z,988.00
2019-01-22T10:50:52.831Z,1040.00
2019-01-22T10:51:52.722Z,1116.00
2019-01-22T10:52:52.631Z,1120.00
2019-01-22T10:53:52.551Z,1112.00
2019-01-22T10:54:52.495Z,1104.00
2019-01-22T10:55:52.358Z,1100.00
2019-01-22T10:56:52.267Z,1092.00
2019-01-22T10:57:52.182Z,1092.00
2019-01-22T10:58:52.091Z,1092.00
2019-01-22T10:59:52.003Z,1084.00
2019-01-22T11:00:51.904Z,1064.00
2019-01-22T11:01:51.812Z,1044.00
2019-01-22T11:02:51.730Z,1040.00
2019-01-22T11:03:51.644Z,1056.00
2019-01-22T11:04:51.550Z,1072.00
2019-01-22T11:05:51.453Z,1064.00
2019-01-22T11:06:51.359Z,1040.00
2019-01-22T11:07:51.270Z,1024.00
2019-01-22T11:08:51.180Z,996.00
2019-01-22T11:09:51.089Z,980.00
2019-01-22T11:10:52.096Z,952.00
2019-01-22T11:11:50.915Z,948.00
2019-01-22T11:12:50.816Z,944.00
2019-01-22T11:13:50.738Z,960.00
2019-01-22T11:14:50.636Z,964.00
2019-01-22T11:15:50.550Z,960.00
2019-01-22T11:16:50.471Z,956.00
2019-01-22T11:17:50.374Z,948.00
2019-01-22T11:18:50.281Z,948.00
2019-01-22T11:19:50.185Z,972.00
2019-01-22T11:20:50.101Z,972.00
2019-01-22T11:21:50.010Z,984.00
2019-01-22T11:22:49.916Z,996.00
2019-01-22T11:23:49.822Z,1028.00
2019-01-22T11:24:52.802Z,1032.00
2019-01-22T11:25:49.651Z,1036.00
2019-01-22T11:26:49.552Z,1064.00
2019-01-22T11:27:49.481Z,1108.00
2019-01-22T11:28:49.373Z,1128.00
2019-01-22T11:29:49.280Z,1144.00
2019-01-22T11:30:49.625Z,1148.00
2019-01-22T11:31:49.105Z,1180.00
2019-01-22T11:32:49.009Z,1212.00
2019-01-22T11:33:48.928Z,1208.00
2019-01-22T11:34:48.832Z,1204.00
2019-01-22T11:35:48.739Z,1168.00
2019-01-22T11:36:48.658Z,1136.00
2019-01-22T11:37:48.558Z,1104.00
2019-01-22T11:38:48.476Z,1072.00
2019-01-22T11:39:48.380Z,1040.00
2019-01-22T11:40:48.292Z,1024.00
2019-01-22T11:41:48.205Z,1032.00
2019-01-22T11:42:48.124Z,1040.00
2019-01-22T11:43:48.033Z,1040.00
2019-01-22T11:44:47.931Z,1048.00
2019-01-22T11:45:47.854Z,1048.00
2019-01-22T11:46:47.749Z,1052.00
2019-01-22T11:47:47.668Z,1052.00
2019-01-22T11:48:47.620Z,1044.00
2019-01-22T11:49:47.477Z,1040.00
2019-01-22T11:50:47.446Z,1024.00
2019-01-22T11:51:47.295Z,996.00
2019-01-22T11:52:47.205Z,972.00
2019-01-22T11:53:47.127Z,940.00
2019-01-22T11:54:47.026Z,916.00
2019-01-22T11:55:50.557Z,912.00
2019-01-22T11:56:46.843Z,916.00
2019-01-22T11:57:46.755Z,920.00
2019-01-22T11:58:46.668Z,908.00
2019-01-22T11:59:46.584Z,892.00
2019-01-22T12:00:46.487Z,884.00
2019-01-22T12:01:46.399Z,884.00
2019-01-22T12:02:46.313Z,884.00
2019-01-22T12:03:46.217Z,900.00
2019-01-22T12:04:46.126Z,916.00
2019-01-22T12:05:46.032Z,928.00
2019-01-22T12:06:45.953Z,924.00
2019-01-22T12:07:45.853Z,904.00
2019-01-22T12:08:45.768Z,892.00
2019-01-22T12:09:45.670Z,880.00
2019-01-22T12:10:45.582Z,868.00
2019-01-22T12:11:45.496Z,860.00
2019-01-22T12:12:45.404Z,856.00
2019-01-22T12:13:45.332Z,852.00
2019-01-22T12:14:45.218Z,848.00
2019-01-22T12:15:45.132Z,852.00
2019-01-22T12:16:45.046Z,860.00
2019-01-22T12:17:44.948Z,864.00
2019-01-22T12:18:44.860Z,856.00
2019-01-22T12:19:44.772Z,828.00
2019-01-22T12:20:44.677Z,804.00
2019-01-22T12:21:44.590Z,784.00
2019-01-22T12:22:44.501Z,776.00
2019-01-22T12:23:44.411Z,800.00
2019-01-22T12:24:44.317Z,820.00
2019-01-22T12:25:44.223Z,832.00
2019-01-22T12:26:44.139Z,832.00
2019-01-22T12:27:44.055Z,836.00
2019-01-22T12:28:43.956Z,848.00
2019-01-22T12:29:43.869Z,876.00
2019-01-22T12:30:43.778Z,928.00
2019-01-22T12:31:43.689Z,956.00
2019-01-22T12:32:44.462Z,920.00
2019-01-22T12:33:43.502Z,892.00
2019-01-22T12:34:43.431Z,880.00
2019-01-22T12:35:43.324Z,888.00
2019-01-22T12:36:43.231Z,884.00
2019-01-22T12:37:43.159Z,900.00
2019-01-22T12:38:43.055Z,904.00
2019-01-22T12:39:42.963Z,896.00
2019-01-22T12:40:42.871Z,868.00
2019-01-22T12:41:42.787Z,840.00
2019-01-22T12:42:42.690Z,808.00
2019-01-22T12:43:42.601Z,784.00
2019-01-22T12:44:42.512Z,760.00
2019-01-22T12:45:42.420Z,744.00
2019-01-22T12:46:42.333Z,748.00
2019-01-22T12:47:42.241Z,760.00
2019-01-22T12:48:42.149Z,772.00
2019-01-22T12:49:42.100Z,788.00
2019-01-22T12:50:41.974Z,796.00
2019-01-22T12:51:41.883Z,812.00
2019-01-22T12:52:41.807Z,824.00
2019-01-22T12:53:45.681Z,844.00
2019-01-22T12:54:41.610Z,856.00
2019-01-22T12:55:41.528Z,844.00
2019-01-22T12:56:41.503Z,840.00
2019-01-22T12:57:41.363Z,840.00